Time;durP1;ratioP1;P1;durP2;ratioP2;P2;SDS_P1;SDS_P2;PMS_P1;PMS_P2;Temp;Humidity;BMP_temperature;BMP_pressure;BME280_temperature;BME280_humidity;BME280_pressure;Samples;Min_cycle;Max_cycle;Signal;HPM_P1;HPM_P2
2022/10/30 00:02:08;;;;;;;;;;;;;;;14.54;73.57;99507.81;5261232;28;19920;-83
2022/10/30 00:04:58;;;;;;;;;;;;;;;14.55;72.26;99506.81;5254861;28;19927;-82
2022/10/30 00:07:49;;;;;;;;;;;;;;;14.28;72.08;99469.59;5235358;28;19920;-82
2022/10/30 00:10:39;;;;;;;;;;;;;;;14.39;72.60;99508.50;5232963;28;19924;-83
2022/10/30 00:13:30;;;;;;;;;;;;;;;14.44;71.87;99498.22;5237295;28;20294;-82
2022/10/30 00:16:20;;;;;;;;;;;;;;;14.48;72.13;99500.41;5237878;28;19928;-82
2022/10/30 00:19:10;;;;;;;;;;;;;;;14.40;71.91;99511.00;5243106;28;19932;-82
2022/10/30 00:22:01;;;;;;;;;;;;;;;14.39;71.64;99519.19;5250961;28;19928;-82
2022/10/30 00:24:50;;;;;;;;;;;;;;;14.31;73.36;99517.28;5243351;28;20057;-82
2022/10/30 00:27:40;;;;;;;;;;;;;;;14.36;72.68;99520.31;5233794;28;19943;-82
2022/10/30 00:30:33;;;;;;;;;;;;;;;14.37;72.58;99516.69;5227905;28;20017;-82
2022/10/30 00:33:23;;;;;;;;;;;;;;;14.36;72.41;99520.31;5230661;28;19931;-82
2022/10/30 00:36:13;;;;;;;;;;;;;;;14.34;72.90;99511.66;5232041;28;19920;-81
2022/10/30 00:39:05;;;;;;;;;;;;;;;14.30;71.99;99518.25;5227642;28;19928;-82
2022/10/30 00:41:55;;;;;;;;;;;;;;;14.20;72.15;99517.50;5213864;28;20003;-81
2022/10/30 00:44:49;;;;;;;;;;;;;;;14.39;72.31;99520.00;5231905;28;20074;-82
2022/10/30 00:47:51;;;;;;;;;;;;;;;14.33;71.88;99520.63;5231963;28;19939;-82
2022/10/30 00:50:41;;;;;;;;;;;;;;;14.34;72.65;99511.66;5255751;28;19973;-81
2022/10/30 00:53:31;;;;;;;;;;;;;;;14.36;72.79;99506.97;5244400;28;19982;-82
2022/10/30 00:56:21;;;;;;;;;;;;;;;14.23;72.15;99506.53;5223427;28;20065;-82
2022/10/30 00:59:14;;;;;;;;;;;;;;;14.27;72.83;99507.91;5226499;28;19924;-82
2022/10/30 01:02:05;;;;;;;;;;;;;;;14.43;72.54;99494.69;5229513;28;19927;-82
2022/10/30 01:04:56;;;;;;;;;;;;;;;14.68;72.08;99492.22;5229264;28;19981;-82
2022/10/30 01:07:46;;;;;;;;;;;;;;;14.55;74.41;99488.13;5235541;28;19927;-82
2022/10/30 01:10:36;;;;;;;;;;;;;;;14.62;73.51;99492.84;5229912;28;19928;-81
2022/10/30 01:13:28;;;;;;;;;;;;;;;14.57;73.50;99494.16;5226663;28;19920;-81
2022/10/30 01:16:30;;;;;;;;;;;;;;;14.61;73.62;99493.84;5231855;28;19960;-82
2022/10/30 01:19:43;;;;;;;;;;;;;;;14.64;73.55;99486.38;5232581;28;19924;-82
2022/10/30 01:22:52;;;;;;;;;;;;;;;14.57;74.11;99483.50;5230125;28;19991;-81
2022/10/30 01:26:00;;;;;;;;;;;;;;;14.60;73.19;99476.13;5241348;28;19931;-82
2022/10/30 01:29:09;;;;;;;;;;;;;;;14.61;73.40;99485.84;5224656;28;20009;-82
2022/10/30 01:32:11;;;;;;;;;;;;;;;14.59;73.10;99477.97;5244307;28;19927;-82
2022/10/30 01:35:10;;;;;;;;;;;;;;;14.66;73.00;99475.50;5232149;28;19927;-82
2022/10/30 01:38:11;;;;;;;;;;;;;;;14.57;72.74;99464.81;5218206;28;19931;-82
2022/10/30 01:41:01;;;;;;;;;;;;;;;14.52;73.43;99458.25;5228136;28;19924;-83
2022/10/30 01:43:53;;;;;;;;;;;;;;;14.50;72.54;99461.09;5222170;28;20025;-81
2022/10/30 01:46:51;;;;;;;;;;;;;;;14.50;72.67;99458.44;5242568;28;19920;-83
2022/10/30 01:50:17;;;;;;;;;;;;;;;14.28;73.66;99457.09;5221624;28;19928;-83
2022/10/30 01:53:10;;;;;;;;;;;;;;;14.31;73.97;99467.44;5174678;28;19992;-82
2022/10/30 01:56:03;;;;;;;;;;;;;;;14.50;73.53;99463.78;5241513;28;19927;-82
2022/10/30 01:58:58;;;;;;;;;;;;;;;14.23;73.90;99458.53;5222177;28;19970;-82
2022/10/30 02:01:48;;;;;;;;;;;;;;;14.23;74.00;99456.69;5226487;28;20045;-82
2022/10/30 02:04:38;;;;;;;;;;;;;;;14.33;73.75;99451.25;5227663;28;19931;-82
2022/10/30 02:07:28;;;;;;;;;;;;;;;14.31;73.58;99450.59;5224059;28;19928;-82
2022/10/30 02:10:18;;;;;;;;;;;;;;;14.41;73.06;99447.84;5236406;28;19928;-82
2022/10/30 02:13:08;;;;;;;;;;;;;;;14.41;73.31;99456.66;5237559;28;19946;-83
2022/10/30 02:15:59;;;;;;;;;;;;;;;14.46;73.13;99467.69;5223495;28;19928;-82
2022/10/30 02:18:49;;;;;;;;;;;;;;;14.22;74.08;99465.69;5234662;28;19928;-83
2022/10/30 02:21:39;;;;;;;;;;;;;;;14.28;73.38;99457.09;5238142;28;20422;-82
2022/10/30 02:24:30;;;;;;;;;;;;;;;14.43;73.19;99445.81;5235127;28;19974;-83
2022/10/30 02:27:21;;;;;;;;;;;;;;;14.41;72.76;99440.66;5226130;28;19973;-82
2022/10/30 02:30:11;;;;;;;;;;;;;;;14.37;72.50;99451.78;5226125;28;19927;-83
2022/10/30 02:33:02;;;;;;;;;;;;;;;14.34;73.07;99461.78;5220767;28;19928;-82
2022/10/30 02:35:53;;;;;;;;;;;;;;;14.23;72.44;99450.53;5222704;28;20018;-82
2022/10/30 02:38:43;;;;;;;;;;;;;;;14.29;72.73;99449.91;5209612;28;20075;-81
2022/10/30 02:41:34;;;;;;;;;;;;;;;14.31;72.40;99447.94;5224288;28;20057;-81
2022/10/30 02:44:24;;;;;;;;;;;;;;;14.16;72.64;99454.81;5232393;28;20696;-81
2022/10/30 02:47:14;;;;;;;;;;;;;;;14.09;71.82;99447.44;5234152;28;20456;-81
2022/10/30 02:50:04;;;;;;;;;;;;;;;14.18;72.01;99444.84;5247111;28;20320;-81
2022/10/30 02:52:57;;;;;;;;;;;;;;;14.15;71.80;99445.16;5216419;28;20398;-81
2022/10/30 02:55:48;;;;;;;;;;;;;;;14.01;71.40;99454.56;5244687;28;19926;-81
2022/10/30 02:58:38;;;;;;;;;;;;;;;13.98;71.52;99452.19;5245768;28;19971;-82
2022/10/30 03:01:29;;;;;;;;;;;;;;;13.98;71.52;99458.34;5236467;28;19928;-82
2022/10/30 03:04:21;;;;;;;;;;;;;;;14.00;72.32;99452.84;5250659;28;19947;-82
2022/10/30 03:07:11;;;;;;;;;;;;;;;14.05;71.61;99459.41;5217392;28;19943;-81
2022/10/30 03:10:01;;;;;;;;;;;;;;;13.96;71.63;99452.34;5245878;28;20400;-81
2022/10/30 03:12:52;;;;;;;;;;;;;;;13.85;71.70;99455.25;5216256;28;19931;-81
2022/10/30 03:15:42;;;;;;;;;;;;;;;13.75;71.49;99451.84;5214121;28;19927;-82
2022/10/30 03:18:34;;;;;;;;;;;;;;;13.61;71.23;99453.22;5232847;28;20054;-82
2022/10/30 03:21:30;;;;;;;;;;;;;;;13.57;71.16;99452.63;5219947;28;20405;-82
2022/10/30 03:24:20;;;;;;;;;;;;;;;13.56;71.10;99463.47;5240009;28;19942;-82
2022/10/30 03:27:10;;;;;;;;;;;;;;;13.46;70.81;99462.69;5232831;28;20110;-82
2022/10/30 03:30:02;;;;;;;;;;;;;;;13.67;71.65;99471.22;5266739;28;20042;-82
2022/10/30 03:32:52;;;;;;;;;;;;;;;13.45;71.27;99461.88;5224457;28;20433;-82
2022/10/30 03:35:43;;;;;;;;;;;;;;;13.36;71.39;99474.25;5243139;28;19958;-82
2022/10/30 03:38:33;;;;;;;;;;;;;;;13.38;71.68;99474.13;5236018;28;20058;-82
2022/10/30 03:41:24;;;;;;;;;;;;;;;13.39;72.19;99470.44;5236460;28;20301;-82
2022/10/30 03:44:14;;;;;;;;;;;;;;;13.30;71.93;99477.50;5248168;28;20302;-82
2022/10/30 03:47:06;;;;;;;;;;;;;;;13.22;73.13;99476.56;5228113;28;19920;-81
2022/10/30 03:50:01;;;;;;;;;;;;;;;13.29;72.32;99477.66;5225081;28;19974;-81
2022/10/30 03:52:52;;;;;;;;;;;;;;;13.24;72.41;99470.09;5232650;28;19931;-82
2022/10/30 03:55:42;;;;;;;;;;;;;;;13.15;72.30;99473.66;5236727;28;20438;-81
2022/10/30 03:58:32;;;;;;;;;;;;;;;12.98;71.87;99477.09;5221699;28;19926;-81
2022/10/30 04:01:23;;;;;;;;;;;;;;;13.03;71.87;99473.00;5245944;28;19924;-82
2022/10/30 04:04:18;;;;;;;;;;;;;;;12.99;71.98;99466.31;5237809;28;20018;-82
2022/10/30 04:07:08;;;;;;;;;;;;;;;12.92;71.91;99471.38;5242023;28;19936;-82
2022/10/30 04:09:58;;;;;;;;;;;;;;;13.01;72.62;99469.63;5232046;28;20452;-81
2022/10/30 04:12:51;;;;;;;;;;;;;;;13.04;73.21;99472.00;5229196;28;19969;-81
2022/10/30 04:15:42;;;;;;;;;;;;;;;13.09;72.58;99474.25;5218881;28;19926;-82
2022/10/30 04:18:32;;;;;;;;;;;;;;;12.89;73.18;99473.50;5226895;28;19920;-81
2022/10/30 04:21:23;;;;;;;;;;;;;;;12.93;72.70;99477.53;5227962;28;19926;-81
2022/10/30 04:24:16;;;;;;;;;;;;;;;12.93;72.71;99483.69;5216431;28;20073;-81
2022/10/30 04:27:07;;;;;;;;;;;;;;;12.78;72.69;99484.31;5254428;28;19926;-81
2022/10/30 04:29:57;;;;;;;;;;;;;;;12.76;72.85;99486.28;5227433;28;19927;-81
2022/10/30 04:32:49;;;;;;;;;;;;;;;12.84;72.79;99475.75;5222713;28;19927;-81
2022/10/30 04:35:41;;;;;;;;;;;;;;;12.96;72.72;99476.41;5232025;28;19966;-81
2022/10/30 04:38:38;;;;;;;;;;;;;;;12.87;72.60;99475.47;5230307;28;19979;-81
2022/10/30 04:41:32;;;;;;;;;;;;;;;12.89;73.40;99470.84;5234055;28;19995;-83
2022/10/30 04:44:27;;;;;;;;;;;;;;;12.86;72.99;99471.13;5216616;28;19931;-82
2022/10/30 04:47:17;;;;;;;;;;;;;;;12.74;71.88;99470.47;5236854;28;19974;-82
2022/10/30 04:50:08;;;;;;;;;;;;;;;12.70;72.43;99472.56;5215151;28;19943;-83
2022/10/30 04:53:02;;;;;;;;;;;;;;;12.78;72.80;99468.34;5217419;28;19985;-82
2022/10/30 04:55:53;;;;;;;;;;;;;;;12.63;72.80;99476.81;5231474;28;19924;-83
2022/10/30 04:58:44;;;;;;;;;;;;;;;12.57;72.89;99473.88;5218389;28;19935;-82
2022/10/30 05:01:34;;;;;;;;;;;;;;;12.66;73.20;99465.03;5243292;28;19954;-83
2022/10/30 05:04:25;;;;;;;;;;;;;;;12.63;73.33;99466.16;5232915;28;19931;-82
2022/10/30 05:07:16;;;;;;;;;;;;;;;12.70;72.73;99467.25;5237751;28;19924;-82
2022/10/30 05:10:06;;;;;;;;;;;;;;;12.59;73.00;99467.44;5223938;28;20023;-82
2022/10/30 05:12:58;;;;;;;;;;;;;;;12.52;72.66;99466.34;5212261;28;20504;-84
2022/10/30 05:15:49;;;;;;;;;;;;;;;12.42;72.61;99466.38;5233709;28;19935;-83
2022/10/30 05:18:39;;;;;;;;;;;;;;;12.39;72.34;99468.50;5228867;28;19938;-84
2022/10/30 05:21:29;;;;;;;;;;;;;;;12.57;71.84;99455.28;5230860;28;19971;-83
2022/10/30 05:24:20;;;;;;;;;;;;;;;12.33;72.38;99459.25;5217047;28;19927;-84
2022/10/30 05:27:12;;;;;;;;;;;;;;;12.27;72.04;99456.34;5238454;28;19927;-84
2022/10/30 05:30:02;;;;;;;;;;;;;;;12.30;72.38;99448.06;5231708;28;20105;-83
2022/10/30 05:32:56;;;;;;;;;;;;;;;12.27;72.04;99453.69;5228578;28;20455;-84
2022/10/30 05:35:47;;;;;;;;;;;;;;;12.19;72.17;99449.91;5235172;28;20017;-85
2022/10/30 05:38:37;;;;;;;;;;;;;;;12.05;71.95;99455.66;5245679;28;19939;-84
2022/10/30 05:41:32;;;;;;;;;;;;;;;11.99;72.08;99465.06;5227241;28;19928;-84
2022/10/30 05:44:22;;;;;;;;;;;;;;;11.97;71.88;99452.88;5232186;28;20313;-84
2022/10/30 05:47:30;;;;;;;;;;;;;;;11.89;71.67;99455.41;5235812;28;19951;-84
2022/10/30 05:50:20;;;;;;;;;;;;;;;11.85;71.63;99452.19;5234052;28;20034;-83
2022/10/30 05:53:26;;;;;;;;;;;;;;;11.89;71.90;99461.56;5226496;28;19946;-83
2022/10/30 05:56:18;;;;;;;;;;;;;;;11.88;72.46;99467.00;5228964;28;19927;-83
2022/10/30 05:59:08;;;;;;;;;;;;;;;11.90;71.94;99462.41;5223146;28;19928;-84
2022/10/30 06:01:58;;;;;;;;;;;;;;;11.86;72.25;99466.31;5209669;28;19943;-84
2022/10/30 06:04:48;;;;;;;;;;;;;;;11.82;72.16;99463.09;5214655;28;19924;-84
2022/10/30 06:07:39;;;;;;;;;;;;;;;11.84;72.10;99460.28;5209127;28;19936;-83
2022/10/30 06:10:30;;;;;;;;;;;;;;;11.83;72.25;99461.25;5219625;28;19951;-84
2022/10/30 06:13:27;;;;;;;;;;;;;;;11.85;72.05;99459.31;5227181;28;19920;-83
2022/10/30 06:16:21;;;;;;;;;;;;;;;11.64;73.48;99454.97;5229938;28;19971;-83
2022/10/30 06:19:23;;;;;;;;;;;;;;;11.74;73.29;99455.78;5230214;28;19920;-84
2022/10/30 06:22:15;;;;;;;;;;;;;;;11.74;72.99;99458.44;5231352;28;19995;-82
2022/10/30 06:25:18;;;;;;;;;;;;;;;11.75;73.43;99467.25;5217965;28;19928;-84
2022/10/30 06:28:19;;;;;;;;;;;;;;;11.74;73.81;99469.06;5235149;28;19966;-85
2022/10/30 06:31:09;;;;;;;;;;;;;;;11.73;73.46;99466.56;5231027;28;20006;-84
2022/10/30 06:34:01;;;;;;;;;;;;;;;11.70;73.85;99470.34;5214291;28;20355;-84
2022/10/30 06:36:53;;;;;;;;;;;;;;;11.87;73.86;99463.50;5247700;28;20385;-84
2022/10/30 06:39:44;;;;;;;;;;;;;;;11.93;73.99;99464.78;5234656;28;19970;-85
2022/10/30 06:42:55;;;;;;;;;;;;;;;12.15;73.33;99467.16;5218429;28;19921;-84
2022/10/30 06:45:56;;;;;;;;;;;;;;;12.20;72.65;99477.34;5242662;28;19931;-83
2022/10/30 06:48:46;;;;;;;;;;;;;;;12.26;72.91;99467.97;5245511;28;19930;-84
2022/10/30 06:51:38;;;;;;;;;;;;;;;12.28;73.66;99473.97;5232357;28;19959;-84
2022/10/30 06:54:28;;;;;;;;;;;;;;;12.17;73.97;99475.78;5237623;28;19966;-84
2022/10/30 06:57:19;;;;;;;;;;;;;;;12.20;73.39;99469.38;5251079;28;19927;-83
2022/10/30 07:00:41;;;;;;;;;;;;;;;12.42;73.45;99477.03;5233147;28;19936;-84
2022/10/30 07:03:57;;;;;;;;;;;;;;;12.40;74.42;99486.13;5223389;28;20050;-84
2022/10/30 07:06:47;;;;;;;;;;;;;;;12.40;74.26;99484.28;5237899;28;19920;-84
2022/10/30 07:09:40;;;;;;;;;;;;;;;12.50;72.92;99478.94;5220684;28;19927;-84
2022/10/30 07:12:30;;;;;;;;;;;;;;;12.52;72.82;99484.97;5242367;28;19943;-83
2022/10/30 07:15:33;;;;;;;;;;;;;;;12.63;73.55;99487.44;5237425;28;19928;-83
2022/10/30 07:18:41;;;;;;;;;;;;;;;12.84;72.74;99481.91;5227169;28;19982;-83
2022/10/30 07:21:32;;;;;;;;;;;;;;;12.95;72.84;99486.22;5226421;28;19927;-83
2022/10/30 07:24:27;;;;;;;;;;;;;;;13.07;72.56;99485.03;5231252;28;20680;-84
2022/10/30 07:27:42;;;;;;;;;;;;;;;13.18;73.00;99489.34;5237444;28;19920;-83
2022/10/30 07:30:48;;;;;;;;;;;;;;;13.46;72.63;99489.34;5231338;28;19920;-84
2022/10/30 07:33:45;;;;;;;;;;;;;;;13.52;72.54;99497.56;5217858;28;19927;-85
2022/10/30 07:37:04;;;;;;;;;;;;;;;13.76;72.13;99496.13;5228814;28;20452;-84
2022/10/30 07:40:05;;;;;;;;;;;;;;;14.12;72.29;99494.28;5217732;28;20054;-84
2022/10/30 07:43:14;;;;;;;;;;;;;;;14.59;70.59;99491.31;5215745;28;20302;-84
2022/10/30 07:46:37;;;;;;;;;;;;;;;15.23;70.54;99489.13;5223699;28;19971;-85
2022/10/30 07:49:55;;;;;;;;;;;;;;;15.62;68.75;99488.56;5238760;28;19943;-83
2022/10/30 07:52:46;;;;;;;;;;;;;;;16.21;67.23;99497.34;5228320;28;19973;-83
2022/10/30 07:55:41;;;;;;;;;;;;;;;16.84;65.49;99493.94;5231721;28;19927;-84
2022/10/30 07:59:00;;;;;;;;;;;;;;;17.30;62.77;99491.41;5216537;28;20002;-84
2022/10/30 08:01:50;;;;;;;;;;;;;;;18.08;62.14;99492.31;5254625;28;19997;-83
2022/10/30 08:04:54;;;;;;;;;;;;;;;18.47;60.80;99481.38;5228463;28;19920;-83
2022/10/30 08:08:07;;;;;;;;;;;;;;;18.70;59.86;99483.16;5238731;28;19935;-83
2022/10/30 08:10:57;;;;;;;;;;;;;;;19.38;58.71;99483.91;5226377;28;19932;-84
2022/10/30 08:13:47;;;;;;;;;;;;;;;19.23;59.56;99486.59;5233442;28;20419;-84
2022/10/30 08:16:40;;;;;;;;;;;;;;;19.74;58.38;99493.84;5244716;28;19924;-84
2022/10/30 08:19:31;;;;;;;;;;;;;;;20.10;57.95;99493.81;5225418;28;19927;-84
2022/10/30 08:22:21;;;;;;;;;;;;;;;20.49;57.50;99497.84;5243326;28;19974;-83
2022/10/30 08:25:21;;;;;;;;;;;;;;;20.65;55.33;99490.31;5246889;28;20200;-84
2022/10/30 08:28:13;;;;;;;;;;;;;;;21.06;54.89;99494.94;5241418;28;19916;-85
2022/10/30 08:31:05;;;;;;;;;;;;;;;21.44;53.72;99489.09;5218924;28;20405;-83
2022/10/30 08:34:14;;;;;;;;;;;;;;;21.67;54.08;99493.34;5234156;28;19962;-83
2022/10/30 08:37:27;;;;;;;;;;;;;;;21.99;54.00;99497.97;5225375;28;20322;-83
2022/10/30 08:40:17;;;;;;;;;;;;;;;22.16;53.89;99492.22;5227154;28;19987;-83
2022/10/30 08:43:19;;;;;;;;;;;;;;;22.70;51.87;99474.91;5235640;28;19974;-83
2022/10/30 08:46:09;;;;;;;;;;;;;;;22.59;51.33;99489.09;5212123;28;19927;-83
2022/10/30 08:49:00;;;;;;;;;;;;;;;22.88;51.00;99485.91;5233042;28;19982;-83
2022/10/30 08:51:52;;;;;;;;;;;;;;;22.96;51.76;99487.59;5231036;28;19935;-83
2022/10/30 08:54:41;;;;;;;;;;;;;;;23.34;50.92;99493.06;5231041;28;19921;-84
2022/10/30 08:57:36;;;;;;;;;;;;;;;23.87;47.91;99482.00;5236329;28;20009;-83
2022/10/30 09:00:26;;;;;;;;;;;;;;;23.70;50.43;99482.72;5234282;28;20444;-83
2022/10/30 09:03:35;;;;;;;;;;;;;;;23.75;48.49;99483.75;5250029;28;19928;-82
2022/10/30 09:06:39;;;;;;;;;;;;;;;24.09;47.61;99487.88;5230444;28;20403;-82
2022/10/30 09:09:55;;;;;;;;;;;;;;;24.09;48.72;99477.03;5254568;28;19998;-82
2022/10/30 09:12:47;;;;;;;;;;;;;;;24.27;48.57;99476.28;5226041;28;20337;-82
2022/10/30 09:15:38;;;;;;;;;;;;;;;24.14;48.54;99487.22;5235505;28;19927;-81
2022/10/30 09:18:28;;;;;;;;;;;;;;;23.75;46.62;99483.75;5214870;28;19928;-82
2022/10/30 09:21:19;;;;;;;;;;;;;;;23.35;47.38;99483.91;5226918;28;19931;-82
2022/10/30 09:24:13;;;;;;;;;;;;;;;23.67;47.67;99486.66;5228201;28;19926;-82
2022/10/30 09:27:03;;;;;;;;;;;;;;;24.00;47.16;99481.06;5228492;28;20429;-82
2022/10/30 09:29:58;;;;;;;;;;;;;;;23.77;48.68;99481.63;5220366;28;19955;-82
2022/10/30 09:32:57;;;;;;;;;;;;;;;23.72;47.19;99486.88;5239587;28;19928;-82
2022/10/30 09:36:08;;;;;;;;;;;;;;;24.04;46.09;99476.88;5231574;28;20682;-81
2022/10/30 09:38:58;;;;;;;;;;;;;;;24.30;46.92;99485.84;5228402;28;19927;-81
2022/10/30 09:41:49;;;;;;;;;;;;;;;24.51;44.26;99487.38;5231063;28;19927;-82
2022/10/30 09:45:00;;;;;;;;;;;;;;;24.24;45.55;99487.56;5226895;28;19939;-82
2022/10/30 09:48:29;;;;;;;;;;;;;;;23.87;47.04;99479.28;5233504;28;20313;-81
2022/10/30 09:51:53;;;;;;;;;;;;;;;24.23;47.09;99483.19;5210442;28;19936;-82
2022/10/30 09:54:51;;;;;;;;;;;;;;;24.33;47.85;99479.97;5234476;28;20500;-82
2022/10/30 09:57:47;;;;;;;;;;;;;;;24.78;46.65;99482.53;5231424;28;20409;-83
2022/10/30 10:00:43;;;;;;;;;;;;;;;24.79;45.63;99482.28;5230087;28;20343;-84
2022/10/30 10:03:54;;;;;;;;;;;;;;;24.82;45.33;99484.53;5210627;28;20042;-83
2022/10/30 10:07:15;;;;;;;;;;;;;;;24.85;44.40;99492.25;5227863;28;19965;-83
2022/10/30 10:10:19;;;;;;;;;;;;;;;24.77;46.47;99480.88;5213385;28;20057;-86
2022/10/30 10:13:23;;;;;;;;;;;;;;;24.52;46.55;99483.59;5220000;28;20409;-82
2022/10/30 10:16:19;;;;;;;;;;;;;;;24.69;46.05;99478.44;5228412;28;19935;-83
2022/10/30 10:19:15;;;;;;;;;;;;;;;24.61;45.82;99476.84;5226456;28;19926;-83
2022/10/30 10:22:33;;;;;;;;;;;;;;;24.42;47.29;99475.16;5235216;28;19931;-82
2022/10/30 10:25:24;;;;;;;;;;;;;;;24.13;47.79;99480.13;5213565;28;20297;-82
2022/10/30 10:28:17;;;;;;;;;;;;;;;23.55;48.01;99478.41;5222370;28;19927;-82
2022/10/30 10:31:26;;;;;;;;;;;;;;;23.48;47.61;99468.63;5221395;28;20061;-83
2022/10/30 10:34:16;;;;;;;;;;;;;;;23.33;48.24;99469.75;5240369;28;19928;-83
2022/10/30 10:37:28;;;;;;;;;;;;;;;23.20;50.30;99469.81;5215644;28;19935;-82
2022/10/30 10:40:22;;;;;;;;;;;;;;;22.97;49.59;99465.72;5218389;28;19976;-83
2022/10/30 10:43:25;;;;;;;;;;;;;;;22.80;49.71;99464.50;5232227;28;20289;-83
2022/10/30 10:46:21;;;;;;;;;;;;;;;22.97;50.62;99460.31;5226151;28;19927;-84
2022/10/30 10:49:25;;;;;;;;;;;;;;;22.84;50.48;99460.31;5210584;28;19940;-83
2022/10/30 10:52:17;;;;;;;;;;;;;;;23.05;50.25;99458.44;5232855;28;20325;-83
2022/10/30 10:55:18;;;;;;;;;;;;;;;22.90;50.72;99451.38;5217246;28;19931;-84
2022/10/30 10:58:28;;;;;;;;;;;;;;;22.91;51.08;99450.34;5231401;28;20010;-83
2022/10/30 11:01:23;;;;;;;;;;;;;;;23.06;50.09;99451.97;5237612;28;19935;-84
2022/10/30 11:04:29;;;;;;;;;;;;;;;23.14;52.27;99449.03;5232065;28;19951;-84
2022/10/30 11:07:20;;;;;;;;;;;;;;;23.31;49.70;99446.66;5223453;28;19986;-84
2022/10/30 11:10:14;;;;;;;;;;;;;;;23.52;50.04;99437.41;5219742;28;19931;-84
2022/10/30 11:13:04;;;;;;;;;;;;;;;23.58;49.61;99434.66;5238112;28;20311;-83
2022/10/30 11:15:58;;;;;;;;;;;;;;;23.85;49.55;99435.34;5227530;28;19981;-85
2022/10/30 11:18:51;;;;;;;;;;;;;;;23.80;48.82;99432.44;5231913;28;19962;-83
2022/10/30 11:21:44;;;;;;;;;;;;;;;23.77;48.35;99435.59;5224491;28;20329;-84
2022/10/30 11:24:35;;;;;;;;;;;;;;;23.83;48.10;99421.19;5229485;28;19932;-82
2022/10/30 11:27:27;;;;;;;;;;;;;;;23.98;47.98;99429.00;5212350;28;19921;-83
2022/10/30 11:30:19;;;;;;;;;;;;;;;24.04;48.88;99419.16;5237425;28;19975;-83
2022/10/30 11:33:20;;;;;;;;;;;;;;;24.12;47.35;99424.31;5224475;28;20437;-83
2022/10/30 11:36:13;;;;;;;;;;;;;;;24.15;46.65;99424.69;5249114;28;19927;-83
2022/10/30 11:39:08;;;;;;;;;;;;;;;24.21;46.13;99420.28;5259044;28;19943;-83
2022/10/30 11:42:17;;;;;;;;;;;;;;;24.26;45.88;99417.69;5243688;28;19912;-83
2022/10/30 11:45:14;;;;;;;;;;;;;;;24.14;47.23;99417.63;5218910;28;19987;-83
2022/10/30 11:48:31;;;;;;;;;;;;;;;24.22;44.70;99412.97;5232378;28;20527;-83
2022/10/30 11:51:38;;;;;;;;;;;;;;;24.21;48.22;99417.56;5234620;28;20404;-83
2022/10/30 11:54:28;;;;;;;;;;;;;;;24.08;45.60;99417.69;5218363;28;20412;-83
2022/10/30 11:57:23;;;;;;;;;;;;;;;23.96;47.80;99406.72;5225523;28;20069;-82
2022/10/30 12:00:21;;;;;;;;;;;;;;;23.91;46.93;99401.97;5230004;28;19971;-83
2022/10/30 12:03:37;;;;;;;;;;;;;;;23.86;47.38;99403.69;5226531;28;19928;-83
2022/10/30 12:06:28;;;;;;;;;;;;;;;24.15;46.02;99410.31;5239558;28;19985;-82
2022/10/30 12:09:19;;;;;;;;;;;;;;;24.17;46.69;99399.25;5224181;28;19928;-83
2022/10/30 12:12:31;;;;;;;;;;;;;;;24.02;48.34;99397.72;5217677;28;20394;-84
2022/10/30 12:15:25;;;;;;;;;;;;;;;23.91;48.63;99399.25;5227628;28;19931;-84
2022/10/30 12:18:21;;;;;;;;;;;;;;;24.20;47.15;99402.34;5223016;28;19997;-84
2022/10/30 12:21:17;;;;;;;;;;;;;;;24.09;47.86;99394.94;5215615;28;19920;-83
2022/10/30 12:24:13;;;;;;;;;;;;;;;24.38;46.82;99388.84;5233142;28;20789;-84
2022/10/30 12:27:05;;;;;;;;;;;;;;;24.25;47.27;99386.25;5244552;28;20415;-84
2022/10/30 12:30:01;;;;;;;;;;;;;;;24.29;46.86;99389.34;5230157;28;20441;-85
2022/10/30 12:33:03;;;;;;;;;;;;;;;24.17;47.72;99391.13;5212437;28;20022;-83
2022/10/30 12:35:53;;;;;;;;;;;;;;;24.30;47.22;99391.81;5213007;28;19970;-85
2022/10/30 12:38:49;;;;;;;;;;;;;;;24.15;47.63;99391.34;5227612;28;19927;-83
2022/10/30 12:41:47;;;;;;;;;;;;;;;24.20;47.67;99388.78;5229195;28;19924;-83
2022/10/30 12:44:41;;;;;;;;;;;;;;;24.25;46.52;99380.84;5236589;28;20046;-83
2022/10/30 12:47:42;;;;;;;;;;;;;;;24.18;47.74;99388.19;5218329;28;20073;-82
2022/10/30 12:50:35;;;;;;;;;;;;;;;24.64;45.75;99378.78;5239629;28;19932;-83
2022/10/30 12:53:28;;;;;;;;;;;;;;;24.38;46.56;99374.44;5221049;28;19943;-82
2022/10/30 12:56:21;;;;;;;;;;;;;;;24.45;46.06;99382.56;5226407;28;19927;-84
2022/10/30 12:59:20;;;;;;;;;;;;;;;24.38;47.63;99378.00;5222076;28;19962;-83
2022/10/30 13:02:14;;;;;;;;;;;;;;;24.24;48.95;99372.91;5240116;28;19993;-84
2022/10/30 13:05:12;;;;;;;;;;;;;;;24.15;48.30;99369.69;5207492;28;19921;-84
2022/10/30 13:08:08;;;;;;;;;;;;;;;24.05;46.66;99364.75;5226353;28;20450;-83
2022/10/30 13:11:11;;;;;;;;;;;;;;;24.25;47.21;99369.16;5238489;28;19962;-85
2022/10/30 13:14:02;;;;;;;;;;;;;;;24.53;45.81;99366.78;5240181;28;19943;-83
2022/10/30 13:16:52;;;;;;;;;;;;;;;24.62;46.98;99361.91;5228072;28;19928;-84
2022/10/30 13:19:45;;;;;;;;;;;;;;;24.38;46.91;99361.72;5225692;28;20007;-82
2022/10/30 13:22:35;;;;;;;;;;;;;;;24.24;47.02;99359.34;5227014;28;20081;-84
2022/10/30 13:25:29;;;;;;;;;;;;;;;24.17;48.70;99366.72;5223105;28;20286;-83
2022/10/30 13:28:22;;;;;;;;;;;;;;;23.98;49.39;99364.00;5227383;28;20398;-84
2022/10/30 13:31:35;;;;;;;;;;;;;;;23.86;50.90;99368.47;5227047;28;20370;-83
2022/10/30 13:34:32;;;;;;;;;;;;;;;23.78;51.44;99366.88;5229301;28;20488;-82
2022/10/30 13:37:40;;;;;;;;;;;;;;;23.71;52.29;99365.25;5210412;28;20361;-83
2022/10/30 13:41:00;;;;;;;;;;;;;;;23.78;51.81;99366.06;5238549;28;19920;-82
2022/10/30 13:43:55;;;;;;;;;;;;;;;23.43;52.46;99326.69;5215567;28;20005;-84
2022/10/30 13:46:45;;;;;;;;;;;;;;;23.68;53.10;99361.13;5226207;28;19999;-82
2022/10/30 13:49:55;;;;;;;;;;;;;;;23.81;51.88;99366.44;5211033;28;19927;-83
2022/10/30 13:52:49;;;;;;;;;;;;;;;23.75;53.88;99364.59;5232969;28;20499;-83
2022/10/30 13:56:00;;;;;;;;;;;;;;;23.67;52.93;99354.84;5230593;28;19935;-82
2022/10/30 13:58:58;;;;;;;;;;;;;;;23.60;52.98;99358.63;5224929;28;20509;-82
2022/10/30 14:01:48;;;;;;;;;;;;;;;23.56;52.93;99360.13;5225624;28;20013;-83
2022/10/30 14:04:46;;;;;;;;;;;;;;;23.50;52.57;99356.41;5208561;28;20071;-82
2022/10/30 14:08:09;;;;;;;;;;;;;;;23.51;52.47;99355.38;5226683;28;19924;-82
2022/10/30 14:10:59;;;;;;;;;;;;;;;23.78;49.82;99355.22;5196804;28;19927;-83
2022/10/30 14:13:54;;;;;;;;;;;;;;;24.08;50.23;99347.25;5225597;28;19920;-82
2022/10/30 14:16:45;;;;;;;;;;;;;;;23.96;54.05;99360.66;5227232;28;19999;-83
2022/10/30 14:19:54;;;;;;;;;;;;;;;23.76;55.12;99355.44;5218523;28;19928;-82
2022/10/30 14:23:04;;;;;;;;;;;;;;;23.56;55.75;99360.97;5222486;28;20341;-82
2022/10/30 14:26:02;;;;;;;;;;;;;;;23.41;57.01;99353.16;5220755;28;19928;-82
2022/10/30 14:28:54;;;;;;;;;;;;;;;23.32;58.42;99357.16;5216464;28;20414;-82
2022/10/30 14:31:44;;;;;;;;;;;;;;;23.22;58.76;99346.00;5213386;28;20287;-82
2022/10/30 14:34:41;;;;;;;;;;;;;;;23.12;59.25;99354.59;5210390;28;19970;-82
2022/10/30 14:37:33;;;;;;;;;;;;;;;23.01;60.03;99354.41;5223448;28;19920;-82
2022/10/30 14:40:33;;;;;;;;;;;;;;;22.98;61.00;99359.22;5220641;28;19996;-83
2022/10/30 14:43:31;;;;;;;;;;;;;;;22.92;61.94;99354.66;5211898;28;19927;-82
2022/10/30 14:46:36;;;;;;;;;;;;;;;22.88;61.85;99361.53;5228312;28;20518;-82
2022/10/30 14:49:39;;;;;;;;;;;;;;;22.60;61.89;99351.03;5241053;28;19928;-82
2022/10/30 14:52:54;;;;;;;;;;;;;;;22.44;62.12;99365.81;5245390;28;20302;-82
2022/10/30 14:55:51;;;;;;;;;;;;;;;22.25;61.74;99359.44;5221436;28;20007;-81
2022/10/30 14:58:41;;;;;;;;;;;;;;;22.27;61.21;99361.91;5219217;28;19921;-83
2022/10/30 15:01:41;;;;;;;;;;;;;;;22.14;61.36;99368.13;5210567;28;19928;-82
2022/10/30 15:04:54;;;;;;;;;;;;;;;22.05;61.82;99367.53;5227537;28;20461;-82
2022/10/30 15:07:54;;;;;;;;;;;;;;;21.93;62.25;99371.91;5232739;28;19947;-82
2022/10/30 15:11:03;;;;;;;;;;;;;;;21.80;61.71;99367.31;5213704;28;19928;-82
2022/10/30 15:13:59;;;;;;;;;;;;;;;21.72;61.83;99369.38;5215121;28;20508;-82
2022/10/30 15:16:51;;;;;;;;;;;;;;;21.75;61.65;99372.50;5214364;28;20338;-82
2022/10/30 15:19:41;;;;;;;;;;;;;;;21.51;62.20;99370.41;5222765;28;19970;-82